createdAt,value
2022-09-15T00:03:04.352Z,23.92
2022-09-15T00:08:07.897Z,23.90
2022-09-15T00:13:11.290Z,23.92
2022-09-15T00:18:18.393Z,23.93
2022-09-15T00:23:25.224Z,23.90
2022-09-15T00:28:28.686Z,23.89
2022-09-15T00:33:32.069Z,23.87
2022-09-15T00:38:36.987Z,23.83
2022-09-15T00:43:43.547Z,23.78
2022-09-15T00:49:16.675Z,23.67
2022-09-15T00:54:32.060Z,23.56
2022-09-15T00:59:39.490Z,23.44
2022-09-15T01:04:43.814Z,23.35
2022-09-15T01:09:54.725Z,23.32
2022-09-15T01:15:01.451Z,23.34
2022-09-15T01:20:09.217Z,23.39
2022-09-15T01:25:31.086Z,23.47
2022-09-15T01:30:42.237Z,23.54
2022-09-15T01:36:03.894Z,23.62
2022-09-15T01:41:07.373Z,23.60
2022-09-15T01:46:14.528Z,23.56
2022-09-15T01:51:18.757Z,23.47
2022-09-15T01:56:22.623Z,23.36
2022-09-15T02:01:39.414Z,23.25
2022-09-15T02:07:01.663Z,23.18
2022-09-15T02:12:10.253Z,23.11
2022-09-15T02:17:17.603Z,23.08
2022-09-15T02:22:23.879Z,23.04
2022-09-15T02:27:31.938Z,23.03
2022-09-15T02:32:37.765Z,23.04
2022-09-15T02:37:41.621Z,23.05
2022-09-15T02:42:56.987Z,23.04
2022-09-15T02:48:00.267Z,23.08
2022-09-15T02:53:03.914Z,23.08
2022-09-15T02:58:07.367Z,23.14
2022-09-15T03:03:10.728Z,23.15
2022-09-15T03:08:14.048Z,23.21
2022-09-15T03:13:17.916Z,23.25
2022-09-15T03:18:21.304Z,23.29
2022-09-15T03:23:24.805Z,23.31
2022-09-15T03:28:29.423Z,23.32
2022-09-15T03:33:33.268Z,23.32
2022-09-15T03:38:37.215Z,23.29
2022-09-15T03:43:41.370Z,23.27
2022-09-15T03:48:45.368Z,23.27
2022-09-15T03:53:48.658Z,23.36
2022-09-15T03:58:53.206Z,23.42
2022-09-15T04:03:56.940Z,23.50
2022-09-15T04:09:00.592Z,23.57
2022-09-15T04:14:04.110Z,23.61
2022-09-15T04:19:07.397Z,23.67
2022-09-15T04:24:10.815Z,23.74
2022-09-15T04:29:16.380Z,23.92
2022-09-15T04:34:19.830Z,24.08
2022-09-15T04:39:23.195Z,24.19
2022-09-15T04:44:26.796Z,24.41
2022-09-15T04:49:30.231Z,25.31
2022-09-15T04:54:34.759Z,27.96
2022-09-15T04:59:38.170Z,30.26
2022-09-15T05:04:41.654Z,31.68
2022-09-15T05:09:46.348Z,32.39
2022-09-15T05:14:49.970Z,31.53
2022-09-15T05:19:54.016Z,30.78
2022-09-15T05:24:57.587Z,29.88
2022-09-15T05:30:25.244Z,28.94
2022-09-15T05:35:25.421Z,28.12
2022-09-15T05:40:31.569Z,27.56
2022-09-15T05:45:37.833Z,27.17
2022-09-15T05:50:49.797Z,26.75
2022-09-15T05:55:56.453Z,26.38
2022-09-15T06:01:08.470Z,26.21
2022-09-15T06:06:12.185Z,26.04
2022-09-15T06:11:21.946Z,26.00
2022-09-15T06:16:26.385Z,26.02
2022-09-15T06:21:31.758Z,26.15
2022-09-15T06:26:35.100Z,26.37
2022-09-15T06:31:41.684Z,26.72
2022-09-15T06:36:51.514Z,27.09
2022-09-15T06:42:03.696Z,27.23
2022-09-15T06:47:10.695Z,27.06
2022-09-15T06:52:13.910Z,26.95
2022-09-15T06:57:17.383Z,26.86
2022-09-15T07:02:20.818Z,26.86
2022-09-15T07:07:25.688Z,26.78
2022-09-15T07:12:29.276Z,26.81
2022-09-15T07:17:32.800Z,26.95
2022-09-15T07:22:36.860Z,26.99
2022-09-15T07:27:40.115Z,26.96
2022-09-15T07:32:43.385Z,27.10
2022-09-15T07:37:47.103Z,27.30
2022-09-15T07:42:50.490Z,27.51
2022-09-15T07:47:55.034Z,27.92
2022-09-15T07:52:58.456Z,28.26
2022-09-15T07:58:02.884Z,28.47
2022-09-15T08:03:06.400Z,28.79
2022-09-15T08:08:09.800Z,28.85
2022-09-15T08:13:13.219Z,28.77
2022-09-15T08:18:19.718Z,28.74
2022-09-15T08:23:27.125Z,28.76
2022-09-15T08:28:30.538Z,28.69
2022-09-15T08:33:34.623Z,28.61
2022-09-15T08:38:42.968Z,28.74
2022-09-15T08:44:13.889Z,29.00
2022-09-15T08:49:53.497Z,29.07
2022-09-15T08:55:03.636Z,29.13
2022-09-15T09:00:14.972Z,29.15
2022-09-15T09:05:47.569Z,29.09
2022-09-15T09:10:58.612Z,28.98
2022-09-15T09:16:20.384Z,28.97
2022-09-15T09:21:33.672Z,28.89
2022-09-15T09:26:37.364Z,28.82
2022-09-15T09:31:41.959Z,28.76
2022-09-15T09:36:45.680Z,28.71
2022-09-15T09:41:49.837Z,28.66
2022-09-15T09:46:53.630Z,28.65
2022-09-15T09:52:00.231Z,28.72
2022-09-15T09:57:32.196Z,28.59
2022-09-15T10:02:47.078Z,28.58
2022-09-15T10:07:50.694Z,28.63
2022-09-15T10:12:58.108Z,28.68
2022-09-15T10:18:02.133Z,28.59
2022-09-15T10:23:17.839Z,28.57
2022-09-15T10:28:23.992Z,28.52
2022-09-15T10:33:32.033Z,28.50
2022-09-15T10:38:44.953Z,28.22
2022-09-15T10:44:22.065Z,28.10
2022-09-15T10:49:41.903Z,28.02
2022-09-15T10:54:58.668Z,28.01
2022-09-15T11:00:20.561Z,28.00
2022-09-15T11:05:38.108Z,27.96
2022-09-15T11:10:47.621Z,27.93
2022-09-15T11:15:54.074Z,27.93
2022-09-15T11:21:26.426Z,27.93
2022-09-15T11:26:57.068Z,27.96
2022-09-15T11:32:10.236Z,27.95
2022-09-15T11:37:40.453Z,27.87
2022-09-15T11:42:58.123Z,27.83
2022-09-15T11:48:15.873Z,27.82
2022-09-15T11:53:26.411Z,27.81
2022-09-15T11:59:01.008Z,27.80
2022-09-15T12:04:43.782Z,27.72
2022-09-15T12:09:47.219Z,27.68
2022-09-15T12:14:52.711Z,27.68
2022-09-15T12:20:06.516Z,27.66
2022-09-15T12:25:20.551Z,27.68
2022-09-15T12:30:41.095Z,27.66
2022-09-15T12:35:44.589Z,27.63
2022-09-15T12:40:58.599Z,27.61
2022-09-15T12:46:02.759Z,27.59
2022-09-15T12:51:09.828Z,27.55
2022-09-15T12:56:24.282Z,27.56
2022-09-15T13:01:27.540Z,27.55
2022-09-15T13:06:34.751Z,27.57
2022-09-15T13:11:41.975Z,27.59
2022-09-15T13:17:09.053Z,27.60
2022-09-15T13:22:12.328Z,27.58
2022-09-15T13:27:21.164Z,27.50
2022-09-15T13:32:46.588Z,27.49
2022-09-15T13:38:20.137Z,27.47
2022-09-15T13:44:03.956Z,27.33
2022-09-15T13:49:25.649Z,27.26
2022-09-15T13:54:29.321Z,27.20
2022-09-15T13:59:33.865Z,27.16
2022-09-15T14:04:37.376Z,27.13
2022-09-15T14:09:48.749Z,27.10
2022-09-15T14:14:56.464Z,27.05
2022-09-15T14:20:01.768Z,27.02
2022-09-15T14:25:14.427Z,27.00
2022-09-15T14:30:26.762Z,26.85
2022-09-15T14:35:37.998Z,26.81
2022-09-15T14:40:53.658Z,26.78
2022-09-15T14:46:10.865Z,26.74
2022-09-15T14:51:25.249Z,26.64
2022-09-15T14:56:34.505Z,26.54
2022-09-15T15:01:41.008Z,26.43
2022-09-15T15:07:06.284Z,26.33
2022-09-15T15:12:25.243Z,26.24
2022-09-15T15:17:43.709Z,26.14
2022-09-15T15:22:47.611Z,25.99
2022-09-15T15:27:53.956Z,25.90
2022-09-15T15:33:02.868Z,25.76
2022-09-15T15:38:18.226Z,25.64
2022-09-15T15:43:23.777Z,25.52
2022-09-15T15:48:45.377Z,25.41
2022-09-15T15:53:48.859Z,25.29
2022-09-15T15:58:52.297Z,25.19
2022-09-15T16:03:55.960Z,25.09
2022-09-15T16:09:00.822Z,25.03
2022-09-15T16:14:04.264Z,24.96
2022-09-15T16:19:07.563Z,24.90
2022-09-15T16:24:15.714Z,24.85
2022-09-15T16:29:19.303Z,24.79
2022-09-15T16:34:23.029Z,24.74
2022-09-15T16:39:26.513Z,24.70
2022-09-15T16:44:29.922Z,24.67
2022-09-15T16:49:33.404Z,24.62
2022-09-15T16:54:36.660Z,24.57
2022-09-15T16:59:40.384Z,24.55
2022-09-15T17:04:44.942Z,24.52
2022-09-15T17:09:50.901Z,24.51
2022-09-15T17:14:54.413Z,24.48
2022-09-15T17:19:58.465Z,24.44
2022-09-15T17:25:01.971Z,24.41
2022-09-15T17:30:06.312Z,24.39
2022-09-15T17:35:18.160Z,24.37
2022-09-15T17:40:22.019Z,24.32
2022-09-15T17:45:35.066Z,24.29
2022-09-15T17:50:39.800Z,24.25
2022-09-15T17:55:43.660Z,24.24
2022-09-15T18:00:49.006Z,24.23
2022-09-15T18:05:52.512Z,24.21
2022-09-15T18:10:57.138Z,24.22
2022-09-15T18:16:05.923Z,24.20
2022-09-15T18:21:21.242Z,24.18
2022-09-15T18:26:26.692Z,24.16
2022-09-15T18:31:30.245Z,24.14
2022-09-15T18:36:33.881Z,24.12
2022-09-15T18:41:37.803Z,24.11
2022-09-15T18:46:41.211Z,24.10
2022-09-15T18:51:52.190Z,24.10
2022-09-15T18:56:55.584Z,24.09
2022-09-15T19:02:00.325Z,24.09
2022-09-15T19:07:03.756Z,24.07
2022-09-15T19:12:07.116Z,24.04
2022-09-15T19:17:11.758Z,24.03
2022-09-15T19:22:15.983Z,23.99
2022-09-15T19:27:20.062Z,23.99
2022-09-15T19:32:23.536Z,23.96
2022-09-15T19:37:26.809Z,23.91
2022-09-15T19:42:30.018Z,23.86
2022-09-15T19:47:33.653Z,23.85
2022-09-15T19:52:37.046Z,23.83
2022-09-15T19:57:42.550Z,23.82
2022-09-15T20:02:48.316Z,23.78
2022-09-15T20:07:52.620Z,23.74
2022-09-15T20:12:56.110Z,23.70
2022-09-15T20:17:59.433Z,23.67
2022-09-15T20:23:02.519Z,23.65
2022-09-15T20:28:05.821Z,23.65
2022-09-15T20:33:09.310Z,23.61
2022-09-15T20:38:12.737Z,23.60
2022-09-15T20:43:16.158Z,23.57
2022-09-15T20:48:19.574Z,23.55
2022-09-15T20:53:22.899Z,23.51
2022-09-15T20:58:26.916Z,23.50
2022-09-15T21:03:30.879Z,23.46
2022-09-15T21:08:35.482Z,23.44
2022-09-15T21:13:40.944Z,23.44
2022-09-15T21:18:45.496Z,23.44
2022-09-15T21:23:52.008Z,23.40
2022-09-15T21:28:57.027Z,23.35
2022-09-15T21:34:00.780Z,23.34
2022-09-15T21:39:04.910Z,23.33
2022-09-15T21:44:09.020Z,23.33
2022-09-15T21:49:14.164Z,23.32
2022-09-15T21:54:18.112Z,23.29
2022-09-15T21:59:21.427Z,23.20
2022-09-15T22:04:24.916Z,23.18
2022-09-15T22:09:28.784Z,23.14
2022-09-15T22:14:32.287Z,23.09
2022-09-15T22:19:35.873Z,23.10
2022-09-15T22:24:39.409Z,23.08
2022-09-15T22:29:42.816Z,23.04
2022-09-15T22:34:46.430Z,23.04
2022-09-15T22:39:58.927Z,23.02
2022-09-15T22:45:02.600Z,22.99
2022-09-15T22:50:07.038Z,22.98
2022-09-15T22:55:11.383Z,22.99
2022-09-15T23:00:16.239Z,22.97
2022-09-15T23:05:19.933Z,22.94
2022-09-15T23:10:23.675Z,22.89
2022-09-15T23:15:27.173Z,22.86
2022-09-15T23:20:30.692Z,22.85
2022-09-15T23:25:34.299Z,22.80
2022-09-15T23:30:38.835Z,22.78
2022-09-15T23:35:49.725Z,22.75
2022-09-15T23:41:06.059Z,22.73
2022-09-15T23:46:10.116Z,22.69
2022-09-15T23:51:14.795Z,22.64
2022-09-15T23:56:18.753Z,22.62
